Terminal Aerodrome Forecast
Issued by NWS

Current Version | Previous Version | Text Only | Print | Product List | Glossary On
Versions: 1 2 3 4 5 6 7 8 9 10 11 12
091
FTUS45 KRIW 211138
TAFWRL
TAF
KWRL 211138Z 2112/2212 15006KT P6SM SCT060 BKN100
     FM211600 34010KT P6SM SCT050 BKN070
     FM212200 35014G22KT P6SM SCT040 BKN060
     FM220400 34009KT P6SM VCSH SCT030 BKN050=

USA.gov is the U.S. government's official web portal to all federal, state and local government web resources and services.